Time;durP1;ratioP1;P1;durP2;ratioP2;P2;SDS_P1;SDS_P2;PMS_P1;PMS_P2;Temp;Humidity;BMP_temperature;BMP_pressure;BME280_temperature;BME280_humidity;BME280_pressure;Samples;Min_cycle;Max_cycle;Signal;HPM_P1;HPM_P2
2022/06/24 00:00:01;;;;;;;5.68;1.92;;;;;;;;;;5101974;28;20323;-79
2022/06/24 00:02:26;;;;;;;4.03;1.98;;;;;;;;;;5101766;28;20228;-76
2022/06/24 00:04:54;;;;;;;7.10;2.05;;;;;;;;;;5102246;28;20347;-77
2022/06/24 00:07:20;;;;;;;3.20;1.73;;;;;;;;;;5101811;28;20043;-78
2022/06/24 00:09:45;;;;;;;8.65;1.98;;;;;;;;;;5101861;28;20051;-76
2022/06/24 00:12:14;;;;;;;5.00;1.85;;;;;;;;;;5101617;28;20043;-76
2022/06/24 00:14:41;;;;;;;3.75;1.88;;;;;;;;;;5101756;28;20380;-77
2022/06/24 00:17:10;;;;;;;5.55;2.03;;;;;;;;;;5101650;28;20024;-76
2022/06/24 00:20:01;;;;;;;4.63;1.92;;;;;;;;;;5101788;28;20091;-75
2022/06/24 00:22:28;;;;;;;7.88;2.00;;;;;;;;;;5101299;28;20028;-77
2022/06/24 00:25:20;;;;;;;2.67;1.60;;;;;;;;;;5102428;28;20544;-75
2022/06/24 00:28:01;;;;;;;5.72;2.00;;;;;;;;;;5106207;28;20046;-79
2022/06/24 00:30:27;;;;;;;4.90;1.98;;;;;;;;;;5106022;28;20039;-76
2022/06/24 00:33:10;;;;;;;7.30;2.00;;;;;;;;;;5105803;28;20040;-76
2022/06/24 00:35:38;;;;;;;5.50;2.00;;;;;;;;;;5105759;28;20047;-75
2022/06/24 00:38:29;;;;;;;5.38;2.00;;;;;;;;;;5105671;28;20091;-76
2022/06/24 00:40:56;;;;;;;4.15;1.95;;;;;;;;;;5105550;28;20208;-78
2022/06/24 00:43:46;;;;;;;4.05;1.75;;;;;;;;;;5105446;28;20291;-74
2022/06/24 00:46:25;;;;;;;3.95;2.00;;;;;;;;;;5104904;28;20044;-75
2022/06/24 00:48:54;;;;;;;3.83;1.75;;;;;;;;;;5095457;28;20067;-76
2022/06/24 00:51:22;;;;;;;4.63;2.00;;;;;;;;;;5084750;28;20252;-75
2022/06/24 00:53:51;;;;;;;3.72;1.80;;;;;;;;;;5084940;28;20224;-76
2022/06/24 00:56:21;;;;;;;6.22;1.80;;;;;;;;;;5084845;28;20051;-78
2022/06/24 00:59:00;;;;;;;5.65;1.90;;;;;;;;;;5084971;28;20028;-76
2022/06/24 01:01:31;;;;;;;3.67;1.88;;;;;;;;;;5084515;28;20020;-74
2022/06/24 01:03:58;;;;;;;5.30;1.90;;;;;;;;;;5084272;28;20016;-74
2022/06/24 01:06:26;;;;;;;5.45;1.90;;;;;;;;;;5083843;28;20028;-75
2022/06/24 01:08:52;;;;;;;4.72;1.88;;;;;;;;;;5084144;28;20027;-79
2022/06/24 01:11:27;;;;;;;5.05;1.90;;;;;;;;;;5084297;28;20020;-77
2022/06/24 01:13:53;;;;;;;4.00;1.70;;;;;;;;;;5084326;28;20028;-75
2022/06/24 01:16:23;;;;;;;4.72;2.00;;;;;;;;;;5084236;28;20376;-77
2022/06/24 01:18:53;;;;;;;5.53;1.67;;;;;;;;;;5083978;28;20316;-77
2022/06/24 01:21:40;;;;;;;6.30;2.00;;;;;;;;;;5083778;28;20217;-78
2022/06/24 01:24:07;;;;;;;4.20;1.88;;;;;;;;;;5084231;28;20035;-78
2022/06/24 01:26:37;;;;;;;4.72;1.90;;;;;;;;;;5084300;28;20084;-76
2022/06/24 01:29:03;;;;;;;6.53;2.00;;;;;;;;;;5084170;28;20070;-78
2022/06/24 01:31:28;;;;;;;3.55;1.70;;;;;;;;;;5084109;28;21019;-76
2022/06/24 01:33:54;;;;;;;5.35;2.20;;;;;;;;;;5083892;28;20023;-76
2022/06/24 01:36:20;;;;;;;6.07;2.00;;;;;;;;;;5082877;28;20032;-77
2022/06/24 01:38:45;;;;;;;3.75;2.00;;;;;;;;;;5083561;28;20031;-79
2022/06/24 01:41:10;;;;;;;3.80;1.80;;;;;;;;;;5083814;28;20266;-78
2022/06/24 01:43:36;;;;;;;6.25;2.00;;;;;;;;;;5083867;28;20382;-78
2022/06/24 01:46:01;;;;;;;4.88;1.80;;;;;;;;;;5084014;28;20050;-77
2022/06/24 01:48:27;;;;;;;5.10;1.80;;;;;;;;;;5083745;28;20035;-76
2022/06/24 01:50:52;;;;;;;10.10;2.00;;;;;;;;;;5083470;28;20035;-75
2022/06/24 01:53:18;;;;;;;3.35;1.83;;;;;;;;;;5083394;28;20433;-74
2022/06/24 01:55:43;;;;;;;5.07;1.67;;;;;;;;;;5083748;28;20336;-78
2022/06/24 01:58:09;;;;;;;4.05;1.70;;;;;;;;;;5083354;28;20130;-76
2022/06/24 02:00:35;;;;;;;4.60;1.80;;;;;;;;;;5083742;28;20055;-76
2022/06/24 02:03:04;;;;;;;6.55;1.90;;;;;;;;;;5083558;28;20033;-77
2022/06/24 02:05:31;;;;;;;4.00;1.63;;;;;;;;;;5083447;28;20028;-76
2022/06/24 02:07:56;;;;;;;4.53;1.70;;;;;;;;;;5083081;28;20025;-77
2022/06/24 02:15:50;;;;;;;2.60;1.50;;;;;;;;;;5083090;28;20039;-76
2022/06/24 02:18:15;;;;;;;4.35;1.50;;;;;;;;;;5083068;28;20099;-76
2022/06/24 02:20:40;;;;;;;3.25;1.60;;;;;;;;;;5082899;28;20020;-75
2022/06/24 02:23:06;;;;;;;5.28;1.73;;;;;;;;;;5082909;28;20116;-75
2022/06/24 02:25:31;;;;;;;3.38;1.58;;;;;;;;;;5083052;28;20232;-77
2022/06/24 02:27:57;;;;;;;4.80;1.77;;;;;;;;;;5082914;28;20021;-77
2022/06/24 02:30:22;;;;;;;11.45;4.55;;;;;;;;;;5082624;28;20028;-75
2022/06/24 02:32:47;;;;;;;9.43;3.78;;;;;;;;;;5082660;28;20091;-76
2022/06/24 02:35:13;;;;;;;13.27;4.07;;;;;;;;;;5082447;28;20025;-78
2022/06/24 02:37:38;;;;;;;8.82;3.20;;;;;;;;;;5064764;28;20103;-75
2022/06/24 02:42:56;;;;;;;6.10;1.90;;;;;;;;;;5084829;28;20047;-77
2022/06/24 02:45:21;;;;;;;9.98;1.50;;;;;;;;;;5087755;28;20087;-77
2022/06/24 02:47:47;;;;;;;5.07;1.83;;;;;;;;;;5086781;28;20036;-76
2022/06/24 02:50:12;;;;;;;4.38;1.60;;;;;;;;;;5087494;28;20024;-76
2022/06/24 02:52:37;;;;;;;3.45;1.13;;;;;;;;;;5088133;28;20084;-77
2022/06/24 02:55:03;;;;;;;4.88;1.17;;;;;;;;;;5087553;28;20312;-77
2022/06/24 02:57:28;;;;;;;3.22;1.10;;;;;;;;;;5087650;28;20029;-74
2022/06/24 02:59:54;;;;;;;3.80;1.20;;;;;;;;;;5088274;28;20028;-77
2022/06/24 03:02:19;;;;;;;2.78;1.23;;;;;;;;;;5088087;28;20021;-78
2022/06/24 03:04:45;;;;;;;2.28;1.00;;;;;;;;;;5086026;28;20104;-78
2022/06/24 03:07:10;;;;;;;3.25;1.20;;;;;;;;;;5086505;28;20024;-78
2022/06/24 03:09:35;;;;;;;3.55;1.30;;;;;;;;;;5083373;28;20202;-78
2022/06/24 03:12:01;;;;;;;3.15;1.13;;;;;;;;;;5085391;28;20029;-78
2022/06/24 03:14:26;;;;;;;5.65;1.38;;;;;;;;;;5085518;28;20190;-76
2022/06/24 03:16:52;;;;;;;5.18;1.20;;;;;;;;;;5084895;28;20055;-77
2022/06/24 03:19:17;;;;;;;1.77;1.05;;;;;;;;;;5084336;28;20036;-78
2022/06/24 03:21:42;;;;;;;2.58;1.17;;;;;;;;;;5084315;28;20135;-76
2022/06/24 03:24:08;;;;;;;2.95;1.23;;;;;;;;;;5084544;28;20216;-78
2022/06/24 03:26:33;;;;;;;4.38;1.20;;;;;;;;;;5084388;28;20050;-77
2022/06/24 03:28:59;;;;;;;3.75;1.20;;;;;;;;;;5084409;28;20024;-75
2022/06/24 03:31:24;;;;;;;3.00;1.40;;;;;;;;;;5084363;28;20029;-75
2022/06/24 03:33:49;;;;;;;3.30;1.10;;;;;;;;;;5083768;28;20024;-77
2022/06/24 03:36:15;;;;;;;2.55;1.30;;;;;;;;;;5083195;28;20028;-77
2022/06/24 03:38:40;;;;;;;5.13;1.20;;;;;;;;;;5065833;28;20028;-78
2022/06/24 03:41:06;;;;;;;5.78;1.40;;;;;;;;;;5083655;28;20433;-78
2022/06/24 03:43:31;;;;;;;4.13;1.17;;;;;;;;;;5083387;28;20046;-77
2022/06/24 03:46:03;;;;;;;4.68;1.23;;;;;;;;;;5083348;28;20020;-77
2022/06/24 03:48:29;;;;;;;3.60;1.10;;;;;;;;;;5083918;28;20060;-78
2022/06/24 03:50:56;;;;;;;3.22;1.08;;;;;;;;;;5084168;28;20095;-78
2022/06/24 03:53:21;;;;;;;2.80;1.20;;;;;;;;;;5084230;28;20212;-78
2022/06/24 03:55:50;;;;;;;4.15;1.10;;;;;;;;;;5083888;28;20308;-75
2022/06/24 03:58:19;;;;;;;5.40;0.93;;;;;;;;;;5084520;28;20033;-77
2022/06/24 04:00:45;;;;;;;5.55;1.30;;;;;;;;;;5083093;28;20566;-73
2022/06/24 04:03:11;;;;;;;4.50;1.30;;;;;;;;;;5083717;28;20044;-77
2022/06/24 04:05:36;;;;;;;3.72;1.00;;;;;;;;;;5084220;28;20020;-74
2022/06/24 04:08:02;;;;;;;4.65;1.30;;;;;;;;;;5084428;28;20024;-75
2022/06/24 04:10:27;;;;;;;3.63;1.20;;;;;;;;;;5084203;28;20067;-78
2022/06/24 04:12:53;;;;;;;4.00;1.00;;;;;;;;;;5084221;28;20326;-76
2022/06/24 04:15:19;;;;;;;2.78;1.05;;;;;;;;;;5087004;28;20070;-71
2022/06/24 04:17:46;;;;;;;3.28;1.08;;;;;;;;;;5087200;28;20025;-71
2022/06/24 04:20:13;;;;;;;2.67;1.10;;;;;;;;;;5087183;28;20021;-76
2022/06/24 04:22:39;;;;;;;4.43;1.20;;;;;;;;;;5092256;28;20045;-76
2022/06/24 04:25:05;;;;;;;3.67;1.00;;;;;;;;;;5090080;28;20043;-70
2022/06/24 04:27:31;;;;;;;4.00;1.20;;;;;;;;;;5086995;28;20023;-77
2022/06/24 04:30:04;;;;;;;3.17;1.20;;;;;;;;;;5082115;28;20048;-75
2022/06/24 04:32:29;;;;;;;3.50;1.08;;;;;;;;;;5082500;28;20327;-77
2022/06/24 04:34:54;;;;;;;5.03;1.40;;;;;;;;;;5081425;28;20031;-78
2022/06/24 04:37:20;;;;;;;3.45;1.02;;;;;;;;;;5080847;28;20031;-77
2022/06/24 04:39:45;;;;;;;2.20;1.08;;;;;;;;;;5080366;28;20035;-75
2022/06/24 04:42:11;;;;;;;3.58;1.30;;;;;;;;;;5069657;28;20024;-74
2022/06/24 04:44:36;;;;;;;4.82;1.30;;;;;;;;;;5069709;28;20059;-75
2022/06/24 04:47:02;;;;;;;2.75;1.40;;;;;;;;;;5069488;28;20025;-76
2022/06/24 04:49:27;;;;;;;2.75;1.10;;;;;;;;;;5069402;28;20045;-77
2022/06/24 04:51:54;;;;;;;2.53;1.45;;;;;;;;;;5068777;28;20086;-76
2022/06/24 04:54:20;;;;;;;3.58;1.17;;;;;;;;;;5069554;28;20484;-75
2022/06/24 04:56:45;;;;;;;2.92;1.38;;;;;;;;;;5069387;28;20068;-75
2022/06/24 04:59:11;;;;;;;5.15;1.42;;;;;;;;;;5069352;28;20055;-73
2022/06/24 05:01:36;;;;;;;7.88;1.90;;;;;;;;;;5069342;28;20028;-76
2022/06/24 05:04:03;;;;;;;13.50;2.90;;;;;;;;;;5069357;28;20044;-76
2022/06/24 05:06:28;;;;;;;12.68;2.63;;;;;;;;;;5068706;28;20036;-74
2022/06/24 05:08:54;;;;;;;11.10;2.85;;;;;;;;;;5069226;28;20025;-78
2022/06/24 05:11:19;;;;;;;10.15;2.20;;;;;;;;;;5069897;28;20439;-77
2022/06/24 05:13:44;;;;;;;7.25;2.38;;;;;;;;;;5072913;28;20040;-76
2022/06/24 05:16:10;;;;;;;7.72;2.17;;;;;;;;;;5072676;28;20081;-76
2022/06/24 05:18:35;;;;;;;4.75;1.58;;;;;;;;;;5072912;28;20013;-76
2022/06/24 05:21:02;;;;;;;3.60;1.20;;;;;;;;;;5072659;28;20494;-75
2022/06/24 05:23:28;;;;;;;7.45;1.00;;;;;;;;;;5072683;28;20098;-76
2022/06/24 05:25:53;;;;;;;4.28;0.80;;;;;;;;;;5072255;28;20056;-76
2022/06/24 05:28:19;;;;;;;3.22;1.00;;;;;;;;;;5072740;28;20036;-76
2022/06/24 05:30:44;;;;;;;4.53;0.90;;;;;;;;;;5072328;28;20427;-76
2022/06/24 05:33:10;;;;;;;3.20;0.60;;;;;;;;;;5072539;28;20035;-75
2022/06/24 05:35:35;;;;;;;9.10;0.90;;;;;;;;;;5072024;28;20112;-77
2022/06/24 05:38:01;;;;;;;5.40;0.60;;;;;;;;;;5072532;28;20024;-76
2022/06/24 05:40:26;;;;;;;3.22;1.00;;;;;;;;;;5072211;28;20059;-75
2022/06/24 05:42:52;;;;;;;3.88;1.00;;;;;;;;;;5072042;28;20668;-77
2022/06/24 05:45:17;;;;;;;4.07;1.10;;;;;;;;;;5072235;28;20051;-74
2022/06/24 05:47:43;;;;;;;4.85;1.15;;;;;;;;;;5071934;28;20042;-75
2022/06/24 05:50:09;;;;;;;2.00;0.90;;;;;;;;;;5071898;28;20108;-74
2022/06/24 05:55:19;;;;;;;3.20;0.75;;;;;;;;;;5072363;28;20047;-75
2022/06/24 05:57:44;;;;;;;3.78;0.80;;;;;;;;;;5071811;28;20112;-75
2022/06/24 06:00:10;;;;;;;4.72;0.60;;;;;;;;;;5071975;28;20096;-74
2022/06/24 06:02:35;;;;;;;3.92;0.80;;;;;;;;;;5071567;28;20032;-75
2022/06/24 06:05:01;;;;;;;1.85;0.50;;;;;;;;;;5071887;28;20029;-76
2022/06/24 06:07:27;;;;;;;1.15;0.50;;;;;;;;;;5071067;28;20036;-76
2022/06/24 06:09:52;;;;;;;1.63;0.60;;;;;;;;;;5071908;28;20052;-76
2022/06/24 06:12:17;;;;;;;1.17;0.60;;;;;;;;;;5071542;28;20410;-75
2022/06/24 06:14:44;;;;;;;5.55;0.57;;;;;;;;;;5071929;28;20036;-74
2022/06/24 06:17:10;;;;;;;2.17;0.80;;;;;;;;;;5071472;28;20032;-74
2022/06/24 06:19:36;;;;;;;4.80;1.00;;;;;;;;;;5072720;28;20032;-76
2022/06/24 06:22:02;;;;;;;5.65;1.30;;;;;;;;;;5073601;28;20415;-71
2022/06/24 06:24:31;;;;;;;3.58;1.10;;;;;;;;;;5071253;28;20053;-73
2022/06/24 06:26:57;;;;;;;2.30;1.00;;;;;;;;;;5073439;28;20028;-73
2022/06/24 06:29:23;;;;;;;3.40;1.10;;;;;;;;;;5070804;28;20115;-72
2022/06/24 06:31:51;;;;;;;2.90;1.20;;;;;;;;;;5081847;28;20115;-69
2022/06/24 06:34:19;;;;;;;5.88;1.13;;;;;;;;;;5077151;28;20042;-74
2022/06/24 06:36:45;;;;;;;2.00;0.90;;;;;;;;;;5090619;28;20093;-73
2022/06/24 06:39:10;;;;;;;3.97;1.10;;;;;;;;;;5079066;28;20032;-76
2022/06/24 06:41:36;;;;;;;4.47;1.00;;;;;;;;;;5069260;28;20024;-73
2022/06/24 06:44:01;;;;;;;2.63;1.23;;;;;;;;;;5070045;28;20089;-76
2022/06/24 06:46:26;;;;;;;2.00;1.08;;;;;;;;;;5070648;28;20024;-74
2022/06/24 06:48:52;;;;;;;2.65;0.90;;;;;;;;;;5070653;28;20124;-76
2022/06/24 06:51:17;;;;;;;4.07;1.20;;;;;;;;;;5070531;28;20407;-74
2022/06/24 06:53:43;;;;;;;2.10;0.90;;;;;;;;;;5070657;28;20522;-71
2022/06/24 06:56:08;;;;;;;1.92;0.90;;;;;;;;;;5070613;28;20028;-71
2022/06/24 06:58:34;;;;;;;2.67;1.45;;;;;;;;;;5070939;28;20031;-80
2022/06/24 07:00:59;;;;;;;1.75;0.80;;;;;;;;;;5070732;28;20206;-70
2022/06/24 07:03:24;;;;;;;3.00;0.77;;;;;;;;;;5070206;28;20028;-76
2022/06/24 07:05:50;;;;;;;1.00;0.80;;;;;;;;;;5070572;28;20420;-76
2022/06/24 07:08:16;;;;;;;3.05;0.70;;;;;;;;;;5056846;28;20024;-75
2022/06/24 07:10:43;;;;;;;3.47;1.00;;;;;;;;;;5076246;28;20031;-77
2022/06/24 07:13:08;;;;;;;2.88;0.77;;;;;;;;;;5087309;28;20060;-75
2022/06/24 07:15:34;;;;;;;4.18;0.80;;;;;;;;;;5070275;28;20058;-74
2022/06/24 07:18:00;;;;;;;1.60;0.60;;;;;;;;;;5070150;28;20230;-75
2022/06/24 07:20:25;;;;;;;2.30;0.63;;;;;;;;;;5070130;28;20056;-74
2022/06/24 07:22:51;;;;;;;2.90;0.70;;;;;;;;;;5069964;28;20509;-73
2022/06/24 07:25:16;;;;;;;1.00;0.70;;;;;;;;;;5081620;28;20095;-73
2022/06/24 07:27:42;;;;;;;1.60;0.60;;;;;;;;;;5089449;28;20030;-72
2022/06/24 07:30:08;;;;;;;2.60;0.90;;;;;;;;;;5089466;28;20594;-70
2022/06/24 07:32:33;;;;;;;2.45;0.70;;;;;;;;;;5089983;28;20452;-74
2022/06/24 07:34:59;;;;;;;5.35;0.65;;;;;;;;;;5089878;28;20117;-73
2022/06/24 07:37:24;;;;;;;1.90;0.73;;;;;;;;;;5089734;28;20032;-73
2022/06/24 07:39:49;;;;;;;4.78;1.40;;;;;;;;;;5090369;28;20024;-74
2022/06/24 07:42:15;;;;;;;5.90;0.90;;;;;;;;;;5085152;28;20048;-72
2022/06/24 07:44:42;;;;;;;5.45;1.35;;;;;;;;;;5081112;28;20055;-71
2022/06/24 07:47:09;;;;;;;4.60;1.00;;;;;;;;;;5074653;28;20028;-70
2022/06/24 07:49:34;;;;;;;3.58;1.08;;;;;;;;;;5070802;28;20044;-71
2022/06/24 07:52:00;;;;;;;2.15;0.90;;;;;;;;;;5068991;28;20112;-70
2022/06/24 07:54:28;;;;;;;5.72;1.00;;;;;;;;;;5068509;28;20020;-71
2022/06/24 07:56:59;;;;;;;6.05;1.40;;;;;;;;;;5069095;28;20028;-71
2022/06/24 07:59:25;;;;;;;6.28;1.27;;;;;;;;;;5071654;28;20256;-71
2022/06/24 08:01:52;;;;;;;2.67;1.10;;;;;;;;;;5073278;28;20032;-70
2022/06/24 08:04:18;;;;;;;1.67;0.93;;;;;;;;;;5071520;28;20036;-77
2022/06/24 08:06:46;;;;;;;1.40;0.75;;;;;;;;;;5069180;28;20021;-75
2022/06/24 08:09:13;;;;;;;5.53;0.95;;;;;;;;;;5053040;28;20052;-73
2022/06/24 08:11:39;;;;;;;1.35;0.70;;;;;;;;;;5071103;28;20024;-74
2022/06/24 08:14:04;;;;;;;3.20;0.90;;;;;;;;;;5069219;28;20027;-73
2022/06/24 08:16:30;;;;;;;2.15;0.90;;;;;;;;;;5069852;28;20032;-71
2022/06/24 08:18:56;;;;;;;3.15;1.13;;;;;;;;;;5067785;28;20529;-70
2022/06/24 08:21:21;;;;;;;2.72;0.85;;;;;;;;;;5067602;28;20500;-70
2022/06/24 08:23:48;;;;;;;1.65;0.80;;;;;;;;;;5067552;28;20493;-70
2022/06/24 08:26:13;;;;;;;4.32;0.90;;;;;;;;;;5067731;28;20031;-71
2022/06/24 08:28:39;;;;;;;2.88;0.95;;;;;;;;;;5067676;28;20033;-72
2022/06/24 08:31:04;;;;;;;3.22;0.93;;;;;;;;;;5070237;28;20209;-78
2022/06/24 08:33:30;;;;;;;2.65;1.00;;;;;;;;;;5072287;28;20024;-71
2022/06/24 08:35:55;;;;;;;4.22;1.20;;;;;;;;;;5072558;28;20028;-73
2022/06/24 08:38:20;;;;;;;3.47;0.70;;;;;;;;;;5069238;28;20025;-73
2022/06/24 08:40:47;;;;;;;1.63;0.80;;;;;;;;;;5069351;28;20122;-75
2022/06/24 08:43:13;;;;;;;4.45;0.98;;;;;;;;;;5068705;28;20035;-72
2022/06/24 08:45:38;;;;;;;2.30;0.75;;;;;;;;;;5068917;28;20033;-75
2022/06/24 08:48:10;;;;;;;2.50;0.90;;;;;;;;;;5072504;28;20055;-73
2022/06/24 08:50:35;;;;;;;4.20;0.90;;;;;;;;;;5072784;28;20040;-74
2022/06/24 08:53:09;;;;;;;1.48;0.80;;;;;;;;;;5073037;28;20020;-75
2022/06/24 08:55:39;;;;;;;2.25;0.90;;;;;;;;;;5072734;28;20052;-74
2022/06/24 08:58:10;;;;;;;1.88;0.82;;;;;;;;;;5072885;28;20020;-77
2022/06/24 09:00:36;;;;;;;2.80;0.90;;;;;;;;;;5072966;28;20033;-76
2022/06/24 09:03:03;;;;;;;2.45;0.90;;;;;;;;;;5072936;28;21039;-75
2022/06/24 09:05:29;;;;;;;3.38;0.98;;;;;;;;;;5072773;28;20025;-76
2022/06/24 09:08:06;;;;;;;1.50;0.80;;;;;;;;;;5072613;28;20392;-74
2022/06/24 09:10:33;;;;;;;3.55;0.80;;;;;;;;;;5072967;28;20029;-75
2022/06/24 09:12:58;;;;;;;4.32;1.30;;;;;;;;;;5072682;28;20037;-73
2022/06/24 09:15:24;;;;;;;1.80;0.70;;;;;;;;;;5072251;28;20035;-73
2022/06/24 09:17:50;;;;;;;6.10;1.20;;;;;;;;;;5072436;28;20040;-70
2022/06/24 09:20:21;;;;;;;1.88;0.93;;;;;;;;;;5072148;28;20020;-70
2022/06/24 09:22:47;;;;;;;2.28;0.90;;;;;;;;;;5072307;28;20028;-72
2022/06/24 09:25:13;;;;;;;2.60;1.00;;;;;;;;;;5072049;28;20476;-74
2022/06/24 09:27:44;;;;;;;1.92;0.80;;;;;;;;;;5054662;28;20032;-75
2022/06/24 09:30:19;;;;;;;3.75;1.02;;;;;;;;;;5072333;28;20025;-74
2022/06/24 09:32:54;;;;;;;3.25;1.00;;;;;;;;;;5072526;28;20048;-75
2022/06/24 09:35:22;;;;;;;4.57;0.98;;;;;;;;;;5071977;28;20074;-73
2022/06/24 09:37:49;;;;;;;1.08;0.70;;;;;;;;;;5072148;28;20020;-71
2022/06/24 09:40:15;;;;;;;3.20;1.10;;;;;;;;;;5071853;28;20468;-74
2022/06/24 09:42:40;;;;;;;3.97;0.95;;;;;;;;;;5072378;28;20043;-75
2022/06/24 09:45:06;;;;;;;3.60;1.02;;;;;;;;;;5071820;28;20039;-71
2022/06/24 09:47:38;;;;;;;1.75;0.75;;;;;;;;;;5072370;28;20027;-73
2022/06/24 09:50:04;;;;;;;3.42;0.85;;;;;;;;;;5071870;28;20621;-73
2022/06/24 09:52:31;;;;;;;1.92;0.82;;;;;;;;;;5071873;28;20032;-69
2022/06/24 09:54:57;;;;;;;3.30;1.20;;;;;;;;;;5071551;28;20039;-70
2022/06/24 09:57:24;;;;;;;3.90;1.00;;;;;;;;;;5071057;28;20111;-73
2022/06/24 10:02:35;;;;;;;3.75;1.20;;;;;;;;;;5072117;28;20040;-74
2022/06/24 10:05:02;;;;;;;3.95;1.35;;;;;;;;;;5071611;28;20028;-73
2022/06/24 10:07:31;;;;;;;3.20;1.30;;;;;;;;;;5053968;28;20020;-75
2022/06/24 10:09:59;;;;;;;4.07;1.20;;;;;;;;;;5071639;28;20028;-74
2022/06/24 10:12:26;;;;;;;3.63;1.10;;;;;;;;;;5071667;28;20028;-74
2022/06/24 10:14:52;;;;;;;3.65;1.10;;;;;;;;;;5071313;28;20048;-75
2022/06/24 10:17:18;;;;;;;1.80;0.93;;;;;;;;;;5071565;28;20459;-74
2022/06/24 10:19:45;;;;;;;4.15;1.05;;;;;;;;;;5071277;28;20115;-74
2022/06/24 10:22:37;;;;;;;3.60;1.10;;;;;;;;;;5071112;28;20029;-77
2022/06/24 10:25:03;;;;;;;6.43;1.35;;;;;;;;;;5071177;28;20044;-76
2022/06/24 10:27:59;;;;;;;4.15;1.17;;;;;;;;;;5071583;28;20558;-75
2022/06/24 10:30:40;;;;;;;2.90;1.13;;;;;;;;;;5071186;28;20028;-74
2022/06/24 10:33:14;;;;;;;3.33;1.40;;;;;;;;;;5071449;28;20032;-74
2022/06/24 10:36:03;;;;;;;3.33;1.10;;;;;;;;;;5070639;28;20073;-75
2022/06/24 10:38:42;;;;;;;2.22;1.10;;;;;;;;;;5071363;28;20028;-74
2022/06/24 10:41:10;;;;;;;2.28;1.00;;;;;;;;;;5071050;28;20488;-75
2022/06/24 10:43:41;;;;;;;2.88;1.20;;;;;;;;;;5071379;28;20063;-76
2022/06/24 10:46:12;;;;;;;2.80;1.20;;;;;;;;;;5070794;28;20029;-74
2022/06/24 10:48:43;;;;;;;3.17;1.10;;;;;;;;;;5070985;28;20119;-73
2022/06/24 10:51:17;;;;;;;2.75;1.20;;;;;;;;;;5070492;28;20451;-75
2022/06/24 10:54:01;;;;;;;3.45;1.10;;;;;;;;;;5070923;28;20020;-76
2022/06/24 10:56:35;;;;;;;3.03;1.20;;;;;;;;;;5070461;28;20067;-74
2022/06/24 10:59:00;;;;;;;3.45;1.10;;;;;;;;;;5071180;28;20111;-76
2022/06/24 11:01:26;;;;;;;2.20;1.20;;;;;;;;;;5071002;28;20380;-75
2022/06/24 11:03:52;;;;;;;1.63;1.10;;;;;;;;;;5070877;28;20135;-74
2022/06/24 11:06:17;;;;;;;2.25;1.05;;;;;;;;;;5070147;28;20024;-74
2022/06/24 11:08:43;;;;;;;3.75;1.17;;;;;;;;;;5070207;28;20028;-70
2022/06/24 11:11:08;;;;;;;3.33;1.20;;;;;;;;;;5070133;28;20230;-70
2022/06/24 11:13:34;;;;;;;3.20;1.20;;;;;;;;;;5070402;28;20460;-71
2022/06/24 11:16:00;;;;;;;3.72;1.27;;;;;;;;;;5070024;28;20029;-69
2022/06/24 11:18:28;;;;;;;2.22;1.10;;;;;;;;;;5070469;28;20024;-70
2022/06/24 11:21:09;;;;;;;3.22;1.30;;;;;;;;;;5070126;28;20032;-71
2022/06/24 11:23:40;;;;;;;2.28;1.20;;;;;;;;;;5070442;28;20051;-70
2022/06/24 11:26:09;;;;;;;5.13;1.10;;;;;;;;;;5069883;28;20029;-70
2022/06/24 11:28:37;;;;;;;3.57;1.30;;;;;;;;;;5070175;28;20016;-70
2022/06/24 11:31:23;;;;;;;2.00;1.13;;;;;;;;;;5069778;28;20427;-71
2022/06/24 11:34:10;;;;;;;3.03;1.30;;;;;;;;;;5070283;28;20024;-70
2022/06/24 11:36:38;;;;;;;2.85;1.13;;;;;;;;;;5068799;28;20063;-71
2022/06/24 11:39:06;;;;;;;1.92;1.10;;;;;;;;;;5070121;28;20458;-71
2022/06/24 11:41:35;;;;;;;3.67;1.20;;;;;;;;;;5070019;28;20029;-71
2022/06/24 11:44:01;;;;;;;4.22;1.38;;;;;;;;;;5070387;28;20047;-71
2022/06/24 11:46:26;;;;;;;3.55;1.30;;;;;;;;;;5069387;28;20021;-71
2022/06/24 11:49:10;;;;;;;3.55;1.15;;;;;;;;;;5069804;28;20076;-70
2022/06/24 11:51:35;;;;;;;3.22;1.20;;;;;;;;;;5069607;28;20028;-70
2022/06/24 11:54:03;;;;;;;1.77;1.02;;;;;;;;;;5069951;28;20028;-70
2022/06/24 11:56:32;;;;;;;1.80;1.10;;;;;;;;;;5069357;28;20025;-70
2022/06/24 11:59:03;;;;;;;4.03;1.15;;;;;;;;;;5070062;28;20021;-74
2022/06/24 12:01:30;;;;;;;3.50;1.23;;;;;;;;;;5071894;28;20185;-73
2022/06/24 12:04:00;;;;;;;3.65;1.20;;;;;;;;;;5068345;28;20082;-73
2022/06/24 12:06:26;;;;;;;2.13;1.25;;;;;;;;;;5070666;28;20104;-76
2022/06/24 12:08:52;;;;;;;7.10;1.20;;;;;;;;;;5069980;28;20024;-72
2022/06/24 12:11:22;;;;;;;2.30;1.00;;;;;;;;;;5074433;28;20024;-74
2022/06/24 12:13:57;;;;;;;1.77;1.00;;;;;;;;;;5072461;28;20017;-80
2022/06/24 12:16:25;;;;;;;3.42;0.90;;;;;;;;;;5069317;28;20529;-75
2022/06/24 12:18:50;;;;;;;2.60;1.00;;;;;;;;;;5074561;28;20482;-75
2022/06/24 12:21:28;;;;;;;2.00;1.10;;;;;;;;;;5068413;28;20111;-74
2022/06/24 12:23:53;;;;;;;3.03;1.17;;;;;;;;;;5070443;28;20365;-76
2022/06/24 12:26:25;;;;;;;3.95;1.20;;;;;;;;;;5072280;28;20520;-75
2022/06/24 12:29:03;;;;;;;3.83;1.15;;;;;;;;;;5070433;28;20104;-76
2022/06/24 12:31:29;;;;;;;2.28;1.00;;;;;;;;;;5074557;28;20019;-77
2022/06/24 12:33:56;;;;;;;5.72;1.33;;;;;;;;;;5053363;28;20021;-78
2022/06/24 12:36:24;;;;;;;2.45;1.25;;;;;;;;;;5070887;28;20516;-76
2022/06/24 12:38:55;;;;;;;2.15;1.00;;;;;;;;;;5073735;28;20017;-78
2022/06/24 12:41:23;;;;;;;4.30;1.30;;;;;;;;;;5070232;28;20019;-80
2022/06/24 12:44:03;;;;;;;2.20;1.20;;;;;;;;;;5071927;28;20028;-74
2022/06/24 12:52:32;;;;;;;3.03;1.20;;;;;;;;;;5086311;28;20031;-77
2022/06/24 12:54:57;;;;;;;3.00;1.30;;;;;;;;;;5079683;28;20462;-73
2022/06/24 12:57:23;;;;;;;3.25;1.40;;;;;;;;;;5079558;28;20056;-81
2022/06/24 12:59:48;;;;;;;5.65;1.40;;;;;;;;;;5077878;28;20021;-74
2022/06/24 13:02:13;;;;;;;3.75;1.13;;;;;;;;;;5075512;28;20056;-76
2022/06/24 13:04:39;;;;;;;1.65;1.17;;;;;;;;;;5073311;28;20027;-74
2022/06/24 13:07:06;;;;;;;3.08;1.10;;;;;;;;;;5074595;28;20024;-76
2022/06/24 13:09:31;;;;;;;3.28;1.20;;;;;;;;;;5090957;28;20387;-73
2022/06/24 13:11:58;;;;;;;4.07;1.20;;;;;;;;;;5088829;28;20103;-76
2022/06/24 13:14:23;;;;;;;2.33;1.15;;;;;;;;;;5079941;28;20332;-75
2022/06/24 13:16:48;;;;;;;2.90;1.00;;;;;;;;;;5081009;28;20027;-75
2022/06/24 13:19:14;;;;;;;1.67;1.10;;;;;;;;;;5090279;28;20028;-77
2022/06/24 13:21:40;;;;;;;3.10;1.20;;;;;;;;;;5082770;28;20043;-79
2022/06/24 13:24:05;;;;;;;2.20;1.15;;;;;;;;;;5068706;28;20050;-79
2022/06/24 13:26:31;;;;;;;1.88;0.98;;;;;;;;;;5081303;28;20017;-76
2022/06/24 13:28:56;;;;;;;1.55;1.00;;;;;;;;;;5084824;28;20015;-76
2022/06/24 13:31:22;;;;;;;2.15;1.10;;;;;;;;;;5075232;28;20021;-77
2022/06/24 13:33:48;;;;;;;1.75;1.00;;;;;;;;;;5073101;28;20020;-70
2022/06/24 13:36:13;;;;;;;4.90;2.10;;;;;;;;;;5077212;28;20082;-70
2022/06/24 13:38:39;;;;;;;3.08;1.70;;;;;;;;;;5087079;28;20042;-68
2022/06/24 13:41:04;;;;;;;2.60;1.40;;;;;;;;;;5092564;28;20032;-69
2022/06/24 13:43:29;;;;;;;2.03;1.13;;;;;;;;;;5074506;28;20456;-71
2022/06/24 13:45:55;;;;;;;2.97;1.02;;;;;;;;;;5092847;28;20031;-69
2022/06/24 13:48:20;;;;;;;2.92;2.00;;;;;;;;;;5094569;28;20110;-69
2022/06/24 13:50:46;;;;;;;2.63;1.50;;;;;;;;;;5076152;28;20028;-70
2022/06/24 13:53:11;;;;;;;4.88;1.30;;;;;;;;;;5093561;28;20035;-68
2022/06/24 13:55:37;;;;;;;3.17;1.20;;;;;;;;;;5093082;28;20020;-69
2022/06/24 13:58:02;;;;;;;2.65;1.08;;;;;;;;;;5092505;28;20026;-69
2022/06/24 14:00:28;;;;;;;1.63;1.13;;;;;;;;;;5092436;28;20028;-69
2022/06/24 14:02:53;;;;;;;3.08;1.27;;;;;;;;;;5088378;28;20587;-71
2022/06/24 14:05:19;;;;;;;3.70;1.20;;;;;;;;;;5073291;28;20498;-69
2022/06/24 14:07:44;;;;;;;2.95;1.05;;;;;;;;;;5071302;28;20026;-69
2022/06/24 14:10:10;;;;;;;1.75;1.10;;;;;;;;;;5071720;28;20491;-70
2022/06/24 14:12:36;;;;;;;2.10;1.17;;;;;;;;;;5053701;28;20054;-69
2022/06/24 14:15:02;;;;;;;2.28;1.00;;;;;;;;;;5076405;28;20052;-69
2022/06/24 14:17:27;;;;;;;1.90;1.02;;;;;;;;;;5075560;28;20059;-76
2022/06/24 14:19:52;;;;;;;2.33;0.90;;;;;;;;;;5080790;28;20027;-71
2022/06/24 14:22:18;;;;;;;3.55;1.00;;;;;;;;;;5080683;28;20027;-72
2022/06/24 14:24:45;;;;;;;2.47;1.00;;;;;;;;;;5081664;28;20032;-70
2022/06/24 14:27:10;;;;;;;3.10;1.00;;;;;;;;;;5074086;28;20086;-72
2022/06/24 14:29:38;;;;;;;2.03;1.02;;;;;;;;;;5076101;28;20480;-70
2022/06/24 14:32:04;;;;;;;2.22;1.00;;;;;;;;;;5079756;28;20078;-69
2022/06/24 14:34:33;;;;;;;3.55;1.20;;;;;;;;;;5080674;28;20095;-69
2022/06/24 14:37:00;;;;;;;1.45;1.00;;;;;;;;;;5079500;28;20083;-72
2022/06/24 14:42:10;;;;;;;3.45;1.02;;;;;;;;;;5086127;28;20035;-73
2022/06/24 14:44:36;;;;;;;4.88;1.40;;;;;;;;;;5094569;28;20023;-75
2022/06/24 14:47:04;;;;;;;2.30;1.10;;;;;;;;;;5090925;28;20035;-76
2022/06/24 14:49:30;;;;;;;1.95;1.00;;;;;;;;;;5076715;28;20570;-70
2022/06/24 14:51:56;;;;;;;3.17;1.00;;;;;;;;;;5071089;28;20078;-77
2022/06/24 14:54:22;;;;;;;1.92;1.20;;;;;;;;;;5073635;28;20028;-78
2022/06/24 14:56:47;;;;;;;1.52;1.10;;;;;;;;;;5070884;28;20056;-70
2022/06/24 14:59:12;;;;;;;1.63;1.13;;;;;;;;;;5070952;28;20020;-75
2022/06/24 15:01:38;;;;;;;2.53;1.20;;;;;;;;;;5072615;28;20028;-79
2022/06/24 15:04:05;;;;;;;3.30;1.08;;;;;;;;;;5074845;28;20048;-77
2022/06/24 15:06:31;;;;;;;1.38;1.10;;;;;;;;;;5072825;28;20036;-78